Time;durP1;ratioP1;P1;durP2;ratioP2;P2;SDS_P1;SDS_P2;PMS_P1;PMS_P2;Temp;Humidity;BMP_temperature;BMP_pressure;BME280_temperature;BME280_humidity;BME280_pressure;Samples;Min_cycle;Max_cycle;Signal;HPM_P1;HPM_P2
2022/05/16 00:01:48;;;;;;;10.35;4.13;;;;;;;;;;5097579;28;20030;-73
2022/05/16 00:04:14;;;;;;;9.60;4.28;;;;;;;;;;5097059;28;20024;-73
2022/05/16 00:06:40;;;;;;;9.07;3.97;;;;;;;;;;5096195;28;20024;-73
2022/05/16 00:09:06;;;;;;;8.68;4.22;;;;;;;;;;5096816;28;20389;-73
2022/05/16 00:11:33;;;;;;;10.63;3.80;;;;;;;;;;5097618;28;20039;-73
2022/05/16 00:13:59;;;;;;;10.85;3.95;;;;;;;;;;5100426;28;20124;-73
2022/05/16 00:16:25;;;;;;;13.05;5.03;;;;;;;;;;5096297;28;20039;-73
2022/05/16 00:18:51;;;;;;;8.35;3.97;;;;;;;;;;5100587;28;20048;-73
2022/05/16 00:21:18;;;;;;;13.68;4.53;;;;;;;;;;5101207;28;20023;-73
2022/05/16 00:23:44;;;;;;;12.15;4.07;;;;;;;;;;5095464;28;20540;-73
2022/05/16 00:26:11;;;;;;;7.45;3.88;;;;;;;;;;5100070;28;20112;-73
2022/05/16 00:28:37;;;;;;;11.75;4.20;;;;;;;;;;5100246;28;20028;-73
2022/05/16 00:31:04;;;;;;;7.00;4.25;;;;;;;;;;5095545;28;20486;-73
2022/05/16 00:33:30;;;;;;;14.43;4.88;;;;;;;;;;5096162;28;20028;-73
2022/05/16 00:35:56;;;;;;;11.27;4.35;;;;;;;;;;5093279;28;20081;-73
2022/05/16 00:38:22;;;;;;;13.15;4.93;;;;;;;;;;5096262;28;20025;-73
2022/05/16 00:40:48;;;;;;;6.72;4.10;;;;;;;;;;5100350;28;20028;-73
2022/05/16 00:43:14;;;;;;;5.50;3.75;;;;;;;;;;5098954;28;20491;-73
2022/05/16 00:45:41;;;;;;;7.10;4.13;;;;;;;;;;5096433;28;20353;-72
2022/05/16 00:48:07;;;;;;;10.80;4.50;;;;;;;;;;5097602;28;20077;-73
2022/05/16 00:50:39;;;;;;;9.95;4.45;;;;;;;;;;5098922;28;20032;-73
2022/05/16 00:53:05;;;;;;;6.38;3.85;;;;;;;;;;5095627;27;20024;-73
2022/05/16 00:55:33;;;;;;;7.43;3.80;;;;;;;;;;5097415;28;20044;-72
2022/05/16 00:58:07;;;;;;;9.40;3.75;;;;;;;;;;5095470;28;20031;-72
2022/05/16 01:00:35;;;;;;;11.48;4.65;;;;;;;;;;5099173;28;20169;-73
2022/05/16 01:05:48;;;;;;;7.88;4.00;;;;;;;;;;5092601;28;20534;-73
2022/05/16 01:08:17;;;;;;;12.82;4.53;;;;;;;;;;5096066;28;20024;-73
2022/05/16 01:10:43;;;;;;;9.82;4.40;;;;;;;;;;5097453;28;20468;-73
2022/05/16 01:13:09;;;;;;;11.18;4.18;;;;;;;;;;5101585;28;20146;-73
2022/05/16 01:15:44;;;;;;;7.85;4.55;;;;;;;;;;5096814;28;20528;-72
2022/05/16 01:18:11;;;;;;;10.93;5.22;;;;;;;;;;5097056;28;20653;-72
2022/05/16 01:20:53;;;;;;;8.73;4.50;;;;;;;;;;5099986;28;20134;-73
2022/05/16 01:23:21;;;;;;;10.88;3.88;;;;;;;;;;5101003;28;20515;-72
2022/05/16 01:25:49;;;;;;;9.25;4.28;;;;;;;;;;5094457;28;20548;-73
2022/05/16 01:28:17;;;;;;;9.75;4.93;;;;;;;;;;5097087;28;20027;-73
2022/05/16 01:30:46;;;;;;;12.38;4.32;;;;;;;;;;5103738;27;20031;-72
2022/05/16 01:33:15;;;;;;;11.02;4.75;;;;;;;;;;5095078;28;20072;-73
2022/05/16 01:35:42;;;;;;;13.43;4.90;;;;;;;;;;5100719;28;20516;-72
2022/05/16 01:38:21;;;;;;;7.03;4.40;;;;;;;;;;5095738;28;20023;-72
2022/05/16 01:40:58;;;;;;;9.57;4.53;;;;;;;;;;5092680;28;20510;-72
2022/05/16 01:43:26;;;;;;;10.77;4.80;;;;;;;;;;5096754;27;20020;-73
2022/05/16 01:45:52;;;;;;;6.72;4.32;;;;;;;;;;5103317;28;20024;-73
2022/05/16 01:48:20;;;;;;;9.40;4.72;;;;;;;;;;5087844;28;20632;-73
2022/05/16 01:50:47;;;;;;;11.27;5.60;;;;;;;;;;5100013;28;20130;-73
2022/05/16 01:53:14;;;;;;;9.88;5.25;;;;;;;;;;5104351;28;20075;-73
2022/05/16 01:55:40;;;;;;;9.98;4.63;;;;;;;;;;5103904;28;20027;-72
2022/05/16 01:58:07;;;;;;;15.15;5.55;;;;;;;;;;5100169;28;20030;-73
2022/05/16 02:00:33;;;;;;;10.65;5.22;;;;;;;;;;5083722;28;20080;-73
2022/05/16 02:03:00;;;;;;;12.13;5.00;;;;;;;;;;5081867;28;20027;-73
2022/05/16 02:05:26;;;;;;;9.10;5.35;;;;;;;;;;5083072;28;20024;-73
2022/05/16 02:07:52;;;;;;;10.85;4.82;;;;;;;;;;5095663;28;20031;-73
2022/05/16 02:10:20;;;;;;;10.32;5.75;;;;;;;;;;5103710;28;20023;-73
2022/05/16 02:12:47;;;;;;;12.88;4.90;;;;;;;;;;5100889;28;20623;-73
2022/05/16 02:15:15;;;;;;;11.55;5.50;;;;;;;;;;5103051;28;20359;-73
2022/05/16 02:17:41;;;;;;;7.22;4.80;;;;;;;;;;5102976;28;20038;-73
2022/05/16 02:20:08;;;;;;;10.48;4.57;;;;;;;;;;5101509;28;20080;-73
2022/05/16 02:25:19;;;;;;;8.30;4.25;;;;;;;;;;5103108;28;20088;-73
2022/05/16 02:27:47;;;;;;;13.65;4.72;;;;;;;;;;5101106;28;20073;-73
2022/05/16 02:30:14;;;;;;;7.95;4.53;;;;;;;;;;5102597;28;20074;-72
2022/05/16 02:32:40;;;;;;;7.30;4.40;;;;;;;;;;5103174;28;20038;-73
2022/05/16 02:35:06;;;;;;;6.57;4.47;;;;;;;;;;5103418;28;20263;-72
2022/05/16 02:37:33;;;;;;;9.23;4.72;;;;;;;;;;5103038;28;20012;-73
2022/05/16 02:39:59;;;;;;;10.23;5.32;;;;;;;;;;5099813;28;20521;-73
2022/05/16 02:42:25;;;;;;;14.65;5.40;;;;;;;;;;5091236;28;20031;-72
2022/05/16 02:44:52;;;;;;;9.63;4.47;;;;;;;;;;5098368;28;20106;-73
2022/05/16 02:47:19;;;;;;;13.82;5.03;;;;;;;;;;5102707;28;20027;-73
2022/05/16 02:49:45;;;;;;;8.75;5.03;;;;;;;;;;5103325;28;20031;-73
2022/05/16 02:52:12;;;;;;;9.65;5.15;;;;;;;;;;5103667;28;20016;-73
2022/05/16 02:54:38;;;;;;;9.80;4.80;;;;;;;;;;5104640;28;20084;-73
2022/05/16 02:57:05;;;;;;;9.88;4.30;;;;;;;;;;5103237;28;20475;-73
2022/05/16 02:59:32;;;;;;;12.38;5.00;;;;;;;;;;5085650;28;20024;-73
2022/05/16 03:02:03;;;;;;;9.05;4.50;;;;;;;;;;5083026;28;20637;-73
2022/05/16 03:04:29;;;;;;;14.93;5.55;;;;;;;;;;5083551;28;20024;-73
2022/05/16 03:06:56;;;;;;;9.90;4.32;;;;;;;;;;5083678;28;20028;-73
2022/05/16 03:09:22;;;;;;;7.95;4.25;;;;;;;;;;5083859;28;20031;-73
2022/05/16 03:11:49;;;;;;;7.70;3.97;;;;;;;;;;5085811;28;20031;-73
2022/05/16 03:14:15;;;;;;;8.75;4.50;;;;;;;;;;5104492;28;20038;-73
2022/05/16 03:16:41;;;;;;;8.85;4.10;;;;;;;;;;5103584;28;20039;-73
2022/05/16 03:19:07;;;;;;;9.65;4.32;;;;;;;;;;5076154;28;20436;-73
2022/05/16 03:21:34;;;;;;;8.43;4.05;;;;;;;;;;5080370;28;20024;-73
2022/05/16 03:24:00;;;;;;;7.53;4.47;;;;;;;;;;5081864;28;20024;-73
2022/05/16 03:26:27;;;;;;;7.20;4.25;;;;;;;;;;5081107;28;20028;-73
2022/05/16 03:28:53;;;;;;;9.43;4.25;;;;;;;;;;5096805;28;20721;-73
2022/05/16 03:31:19;;;;;;;11.68;4.47;;;;;;;;;;5100017;28;20044;-73
2022/05/16 03:33:46;;;;;;;7.93;4.38;;;;;;;;;;5094767;28;20030;-73
2022/05/16 03:36:12;;;;;;;7.75;4.10;;;;;;;;;;5099299;28;20042;-73
2022/05/16 03:41:23;;;;;;;10.48;4.88;;;;;;;;;;5099240;28;20046;-73
2022/05/16 03:43:50;;;;;;;12.27;5.18;;;;;;;;;;5083016;28;20493;-73
2022/05/16 03:46:17;;;;;;;11.00;4.20;;;;;;;;;;5083304;28;20047;-73
2022/05/16 03:48:43;;;;;;;9.40;4.45;;;;;;;;;;5081874;28;20020;-73
2022/05/16 03:51:10;;;;;;;8.23;4.28;;;;;;;;;;5083052;28;20032;-73
2022/05/16 03:53:42;;;;;;;13.13;4.00;;;;;;;;;;5082740;28;20081;-72
2022/05/16 03:56:09;;;;;;;9.82;4.38;;;;;;;;;;5081816;28;20115;-73
2022/05/16 03:58:35;;;;;;;10.38;4.68;;;;;;;;;;5081626;28;20519;-73
2022/05/16 04:01:01;;;;;;;13.80;4.82;;;;;;;;;;5083046;28;20032;-72
2022/05/16 04:03:28;;;;;;;7.55;4.70;;;;;;;;;;5080701;28;20039;-73
2022/05/16 04:05:54;;;;;;;8.50;4.65;;;;;;;;;;5083149;28;20024;-73
2022/05/16 04:08:20;;;;;;;9.10;4.75;;;;;;;;;;5082902;28;20067;-73
2022/05/16 04:10:46;;;;;;;9.45;4.35;;;;;;;;;;5093254;28;20043;-73
2022/05/16 04:13:12;;;;;;;12.30;4.40;;;;;;;;;;5095647;28;20024;-73
2022/05/16 04:15:38;;;;;;;8.75;4.38;;;;;;;;;;5102864;28;20036;-73
2022/05/16 04:18:04;;;;;;;13.70;5.28;;;;;;;;;;5102340;28;20030;-73
2022/05/16 04:20:31;;;;;;;11.02;4.88;;;;;;;;;;5100709;28;20051;-73
2022/05/16 04:22:57;;;;;;;11.10;4.70;;;;;;;;;;5103186;28;20063;-73
2022/05/16 04:25:23;;;;;;;8.40;4.25;;;;;;;;;;5102568;28;20339;-73
2022/05/16 04:27:49;;;;;;;10.80;4.57;;;;;;;;;;5082475;28;20031;-74
2022/05/16 04:30:15;;;;;;;9.80;4.57;;;;;;;;;;5082344;28;20036;-73
2022/05/16 04:32:41;;;;;;;13.77;4.90;;;;;;;;;;5081825;28;20401;-73
2022/05/16 04:35:08;;;;;;;13.02;4.55;;;;;;;;;;5080140;28;20043;-73
2022/05/16 04:37:34;;;;;;;10.35;5.20;;;;;;;;;;5082053;28;20050;-73
2022/05/16 04:40:01;;;;;;;10.90;4.57;;;;;;;;;;5081582;28;20028;-74
2022/05/16 04:42:43;;;;;;;11.82;4.95;;;;;;;;;;5080639;28;20028;-73
2022/05/16 04:45:11;;;;;;;9.88;4.38;;;;;;;;;;5081559;28;20032;-74
2022/05/16 04:47:38;;;;;;;12.30;5.20;;;;;;;;;;5085097;27;20110;-74
2022/05/16 04:50:05;;;;;;;9.95;4.72;;;;;;;;;;5088409;28;20472;-74
2022/05/16 04:52:32;;;;;;;7.88;4.18;;;;;;;;;;5101767;28;20679;-73
2022/05/16 04:54:59;;;;;;;9.57;4.82;;;;;;;;;;5102038;28;20092;-73
2022/05/16 04:57:25;;;;;;;11.73;4.20;;;;;;;;;;5100611;28;20027;-73
2022/05/16 04:59:51;;;;;;;16.10;5.20;;;;;;;;;;5094244;28;20028;-73
2022/05/16 05:02:18;;;;;;;13.30;5.03;;;;;;;;;;5080191;28;20052;-73
2022/05/16 05:04:44;;;;;;;9.05;4.60;;;;;;;;;;5081710;28;20031;-73
2022/05/16 05:07:11;;;;;;;9.73;4.53;;;;;;;;;;5087318;28;20077;-74
2022/05/16 05:14:32;;;;;;;11.25;4.88;;;;;;;;;;5095852;27;20547;-74
2022/05/16 05:15:09;;;;;;;11.82;4.60;;;;;;;;;;5096982;28;20043;-74
2022/05/16 05:17:36;;;;;;;11.30;5.40;;;;;;;;;;5089005;28;20476;-74
2022/05/16 05:20:03;;;;;;;9.30;4.97;;;;;;;;;;5085258;28;20040;-74
2022/05/16 05:22:29;;;;;;;12.70;5.13;;;;;;;;;;5095688;28;20171;-74
2022/05/16 05:24:55;;;;;;;11.77;5.35;;;;;;;;;;5101823;28;20116;-74
2022/05/16 05:27:22;;;;;;;9.88;5.05;;;;;;;;;;5096313;28;20028;-73
2022/05/16 05:29:51;;;;;;;9.50;4.93;;;;;;;;;;5081443;28;20032;-73
2022/05/16 05:32:17;;;;;;;9.93;5.82;;;;;;;;;;5081337;28;20046;-75
2022/05/16 05:34:43;;;;;;;16.55;6.47;;;;;;;;;;5082584;28;20016;-75
2022/05/16 05:37:09;;;;;;;13.05;6.75;;;;;;;;;;5090942;28;20020;-75
2022/05/16 05:39:37;;;;;;;17.65;7.50;;;;;;;;;;5091813;28;20020;-74
2022/05/16 05:42:03;;;;;;;16.77;8.05;;;;;;;;;;5087926;28;20028;-74
2022/05/16 05:44:29;;;;;;;14.27;7.07;;;;;;;;;;5091733;28;20026;-74
2022/05/16 05:46:55;;;;;;;12.32;7.10;;;;;;;;;;5091432;28;20043;-75
2022/05/16 05:49:22;;;;;;;19.63;7.45;;;;;;;;;;5090063;28;20136;-73
2022/05/16 05:51:48;;;;;;;12.27;6.75;;;;;;;;;;5091112;28;20027;-75
2022/05/16 05:54:14;;;;;;;20.17;7.38;;;;;;;;;;5090858;28;20035;-74
2022/05/16 05:56:40;;;;;;;10.35;5.80;;;;;;;;;;5088244;28;20040;-73
2022/05/16 05:59:06;;;;;;;11.07;5.65;;;;;;;;;;5088773;28;20030;-73
2022/05/16 06:01:32;;;;;;;11.25;5.80;;;;;;;;;;5088790;28;20031;-74
2022/05/16 06:03:58;;;;;;;9.85;4.18;;;;;;;;;;5089177;28;20035;-73
2022/05/16 06:06:25;;;;;;;7.95;4.15;;;;;;;;;;5087035;28;20032;-73
2022/05/16 06:08:51;;;;;;;8.50;4.43;;;;;;;;;;5089836;28;20501;-73
2022/05/16 06:11:17;;;;;;;13.45;5.20;;;;;;;;;;5090127;28;20088;-73
2022/05/16 06:13:44;;;;;;;16.00;4.60;;;;;;;;;;5089136;28;20020;-74
2022/05/16 06:16:10;;;;;;;8.30;4.78;;;;;;;;;;5089941;28;20621;-73
2022/05/16 06:18:37;;;;;;;6.57;4.70;;;;;;;;;;5089325;28;20032;-74
2022/05/16 06:21:04;;;;;;;7.07;4.40;;;;;;;;;;5088639;28;20484;-73
2022/05/16 06:23:30;;;;;;;10.57;4.35;;;;;;;;;;5090354;28;20030;-74
2022/05/16 06:25:57;;;;;;;17.40;5.53;;;;;;;;;;5087594;28;20028;-74
2022/05/16 06:28:28;;;;;;;10.85;4.13;;;;;;;;;;5088888;28;20020;-73
2022/05/16 06:30:56;;;;;;;8.02;4.55;;;;;;;;;;5090442;28;20031;-73
2022/05/16 06:33:25;;;;;;;9.63;4.97;;;;;;;;;;5088842;28;20023;-73
2022/05/16 06:35:52;;;;;;;12.68;4.85;;;;;;;;;;5089078;28;20059;-73
2022/05/16 06:38:19;;;;;;;9.60;4.47;;;;;;;;;;5087463;28;20201;-73
2022/05/16 06:40:46;;;;;;;8.60;3.95;;;;;;;;;;5083158;28;20020;-73
2022/05/16 06:43:13;;;;;;;7.97;4.25;;;;;;;;;;5085207;28;20094;-73
2022/05/16 06:45:39;;;;;;;11.18;5.13;;;;;;;;;;5087065;28;20035;-73
2022/05/16 06:48:06;;;;;;;9.57;4.60;;;;;;;;;;5092228;28;20022;-73
2022/05/16 06:50:33;;;;;;;9.18;4.75;;;;;;;;;;5089632;28;20388;-73
2022/05/16 06:53:00;;;;;;;10.25;4.65;;;;;;;;;;5086206;28;20035;-73
2022/05/16 06:55:26;;;;;;;10.35;5.00;;;;;;;;;;5087330;28;20619;-74
2022/05/16 06:57:52;;;;;;;6.32;4.20;;;;;;;;;;5091158;27;20499;-73
2022/05/16 07:00:19;;;;;;;11.85;4.78;;;;;;;;;;5086215;28;20036;-74
2022/05/16 07:02:45;;;;;;;6.40;3.97;;;;;;;;;;5083479;28;20028;-73
2022/05/16 07:05:11;;;;;;;9.85;4.55;;;;;;;;;;5083702;28;20035;-73
2022/05/16 07:07:38;;;;;;;10.27;5.07;;;;;;;;;;5086559;28;20032;-74
2022/05/16 07:10:05;;;;;;;11.10;4.70;;;;;;;;;;5089436;28;20047;-74
2022/05/16 07:12:31;;;;;;;13.75;5.03;;;;;;;;;;5089402;28;20026;-74
2022/05/16 07:14:57;;;;;;;14.00;5.88;;;;;;;;;;5087161;28;20031;-74
2022/05/16 07:17:23;;;;;;;12.50;5.00;;;;;;;;;;5092123;28;20106;-73
2022/05/16 07:19:49;;;;;;;12.85;4.30;;;;;;;;;;5102002;28;20043;-74
2022/05/16 07:22:19;;;;;;;11.43;4.32;;;;;;;;;;5090883;28;20085;-73
2022/05/16 07:24:46;;;;;;;8.75;4.43;;;;;;;;;;5092303;27;20023;-74
2022/05/16 07:29:57;;;;;;;10.50;4.07;;;;;;;;;;5094168;28;20169;-73
2022/05/16 07:32:23;;;;;;;6.93;3.25;;;;;;;;;;5096392;28;20031;-74
2022/05/16 07:34:49;;;;;;;9.07;4.10;;;;;;;;;;5094443;27;20031;-73
2022/05/16 07:37:16;;;;;;;10.10;4.28;;;;;;;;;;5094694;28;20023;-73
2022/05/16 07:39:42;;;;;;;7.00;3.85;;;;;;;;;;5093989;27;20054;-74
2022/05/16 07:42:10;;;;;;;10.02;4.13;;;;;;;;;;5090151;27;20753;-73
2022/05/16 07:44:37;;;;;;;6.32;3.80;;;;;;;;;;5086939;28;20163;-73
2022/05/16 07:47:04;;;;;;;7.32;3.70;;;;;;;;;;5095007;28;20130;-74
2022/05/16 07:49:30;;;;;;;8.15;4.07;;;;;;;;;;5094390;27;20035;-73
2022/05/16 07:51:56;;;;;;;12.63;5.10;;;;;;;;;;5091239;28;20031;-74
2022/05/16 07:54:23;;;;;;;9.90;4.10;;;;;;;;;;5094733;28;20020;-75
2022/05/16 07:56:49;;;;;;;8.85;3.72;;;;;;;;;;5092237;28;20428;-72
2022/05/16 07:59:16;;;;;;;7.20;3.60;;;;;;;;;;5093538;27;20012;-74
2022/05/16 08:01:42;;;;;;;9.20;4.28;;;;;;;;;;5092304;27;20807;-74
2022/05/16 08:04:09;;;;;;;7.75;4.28;;;;;;;;;;5091897;28;20541;-74
2022/05/16 08:06:35;;;;;;;13.18;4.70;;;;;;;;;;5093975;28;20063;-74
2022/05/16 08:11:46;;;;;;;11.93;5.30;;;;;;;;;;5095394;28;20181;-74
2022/05/16 08:14:12;;;;;;;14.65;5.53;;;;;;;;;;5089510;27;20873;-74
2022/05/16 08:16:40;;;;;;;12.15;6.03;;;;;;;;;;5102890;27;20115;-74
2022/05/16 08:19:06;;;;;;;11.68;6.63;;;;;;;;;;5091987;27;20040;-74
2022/05/16 08:21:32;;;;;;;33.42;22.58;;;;;;;;;;5092844;28;20023;-73
2022/05/16 08:24:01;;;;;;;38.20;22.08;;;;;;;;;;5102176;28;20119;-73
2022/05/16 08:26:27;;;;;;;59.92;39.70;;;;;;;;;;5100966;27;20028;-74
2022/05/16 08:28:53;;;;;;;89.88;57.65;;;;;;;;;;5103496;27;20055;-73
2022/05/16 08:31:19;;;;;;;164.38;114.10;;;;;;;;;;5084581;28;20104;-74
2022/05/16 08:33:46;;;;;;;42.72;26.02;;;;;;;;;;5087724;28;20028;-73
2022/05/16 08:41:52;;;;;;;37.35;25.05;;;;;;;;;;5084085;28;20119;-74
2022/05/16 08:44:18;;;;;;;15.13;8.65;;;;;;;;;;5089410;27;20020;-78
2022/05/16 08:46:44;;;;;;;64.53;36.53;;;;;;;;;;5092192;28;20031;-79
2022/05/16 08:49:14;;;;;;;57.22;31.73;;;;;;;;;;5088646;28;20053;-78
2022/05/16 08:51:42;;;;;;;28.33;12.45;;;;;;;;;;5090384;28;20019;-78
2022/05/16 08:54:28;;;;;;;29.77;16.10;;;;;;;;;;5095303;27;20019;-75
2022/05/16 08:56:56;;;;;;;36.88;17.58;;;;;;;;;;5104199;27;20079;-74
2022/05/16 08:59:24;;;;;;;75.60;39.35;;;;;;;;;;5089956;28;20031;-75
2022/05/16 09:02:00;;;;;;;59.85;34.15;;;;;;;;;;5105416;27;20028;-75
2022/05/16 09:04:30;;;;;;;13.82;6.70;;;;;;;;;;5096894;27;20430;-75
2022/05/16 09:07:01;;;;;;;37.03;19.92;;;;;;;;;;5085715;27;20803;-75
2022/05/16 09:09:33;;;;;;;34.08;19.63;;;;;;;;;;5093489;28;20044;-74
2022/05/16 09:12:22;;;;;;;56.30;26.55;;;;;;;;;;5096689;28;20027;-73
2022/05/16 09:14:48;;;;;;;95.10;44.33;;;;;;;;;;5100515;28;20024;-76
2022/05/16 09:17:22;;;;;;;65.90;31.17;;;;;;;;;;5098942;28;20047;-74
2022/05/16 09:19:48;;;;;;;27.90;14.85;;;;;;;;;;5095038;28;20039;-73
2022/05/16 09:22:18;;;;;;;66.55;28.08;;;;;;;;;;5089576;27;20104;-72
2022/05/16 09:24:45;;;;;;;130.25;53.30;;;;;;;;;;5094977;28;20506;-73
2022/05/16 09:27:11;;;;;;;34.63;16.83;;;;;;;;;;5081645;28;20047;-72
2022/05/16 09:29:45;;;;;;;10.57;5.40;;;;;;;;;;5085749;28;20544;-73
2022/05/16 09:32:33;;;;;;;18.27;6.60;;;;;;;;;;5092034;27;20495;-73
2022/05/16 09:34:59;;;;;;;27.67;13.15;;;;;;;;;;5096795;27;20028;-73
2022/05/16 09:37:25;;;;;;;51.33;22.38;;;;;;;;;;5094320;28;20053;-74
2022/05/16 09:39:52;;;;;;;18.42;9.15;;;;;;;;;;5082572;28;20051;-73
2022/05/16 09:42:22;;;;;;;22.73;10.18;;;;;;;;;;5083620;28;20039;-71
2022/05/16 09:44:54;;;;;;;17.73;8.18;;;;;;;;;;5090450;28;20411;-73
2022/05/16 09:47:29;;;;;;;15.88;8.30;;;;;;;;;;5089604;28;20480;-72
2022/05/16 09:50:14;;;;;;;24.27;10.98;;;;;;;;;;5089952;28;20032;-72
2022/05/16 09:52:48;;;;;;;14.45;6.95;;;;;;;;;;5091925;28;20039;-72
2022/05/16 09:55:23;;;;;;;10.45;6.22;;;;;;;;;;5087992;28;20027;-72
2022/05/16 09:57:49;;;;;;;11.27;4.63;;;;;;;;;;5090254;28;20085;-74
2022/05/16 10:00:18;;;;;;;9.52;4.97;;;;;;;;;;5091449;28;20392;-71
2022/05/16 10:02:53;;;;;;;14.07;6.10;;;;;;;;;;5087351;27;20023;-71
2022/05/16 10:05:25;;;;;;;17.80;8.68;;;;;;;;;;5088725;28;20035;-70
2022/05/16 10:07:58;;;;;;;20.90;8.68;;;;;;;;;;5087581;28;20028;-71
2022/05/16 10:10:26;;;;;;;17.52;7.30;;;;;;;;;;5086332;28;20561;-72
2022/05/16 10:12:53;;;;;;;14.80;6.32;;;;;;;;;;5088718;28;20088;-74
2022/05/16 10:15:20;;;;;;;11.60;5.95;;;;;;;;;;5085619;28;20055;-73
2022/05/16 10:17:46;;;;;;;12.07;5.20;;;;;;;;;;5083467;28;20035;-73
2022/05/16 10:20:46;;;;;;;9.02;4.72;;;;;;;;;;5087270;28;20054;-71
2022/05/16 10:23:32;;;;;;;11.02;5.10;;;;;;;;;;5038741;28;20558;-71
2022/05/16 10:26:10;;;;;;;15.95;5.18;;;;;;;;;;5084599;28;20031;-70
2022/05/16 10:28:42;;;;;;;10.40;5.68;;;;;;;;;;5084532;27;20020;-75
2022/05/16 10:33:55;;;;;;;9.15;4.93;;;;;;;;;;5089816;28;19985;-79
2022/05/16 10:36:24;;;;;;;13.13;6.65;;;;;;;;;;5085603;28;20076;-74
2022/05/16 10:39:09;;;;;;;13.13;7.93;;;;;;;;;;5089072;27;20051;-72
2022/05/16 10:41:44;;;;;;;10.90;6.47;;;;;;;;;;5091084;28;20031;-81
2022/05/16 10:44:29;;;;;;;15.90;6.30;;;;;;;;;;5086154;28;20106;-83
2022/05/16 10:47:08;;;;;;;15.32;5.43;;;;;;;;;;5086676;28;20055;-77
2022/05/16 10:49:38;;;;;;;9.68;5.05;;;;;;;;;;5087204;28;20023;-72
2022/05/16 10:52:23;;;;;;;14.90;6.93;;;;;;;;;;5083330;28;20063;-73
2022/05/16 10:54:49;;;;;;;11.65;6.55;;;;;;;;;;5094318;28;20094;-72
2022/05/16 10:57:21;;;;;;;11.13;6.13;;;;;;;;;;5094662;28;20035;-72
2022/05/16 10:59:59;;;;;;;13.45;5.25;;;;;;;;;;5094212;28;20612;-72
2022/05/16 11:02:47;;;;;;;11.50;5.32;;;;;;;;;;5098087;28;20031;-76
2022/05/16 11:05:23;;;;;;;11.90;5.18;;;;;;;;;;5082614;28;20024;-74
2022/05/16 11:08:09;;;;;;;15.20;4.40;;;;;;;;;;5098734;28;20099;-72
2022/05/16 11:10:35;;;;;;;15.07;5.90;;;;;;;;;;5119438;27;20039;-72
2022/05/16 11:13:01;;;;;;;6.68;4.05;;;;;;;;;;5098685;28;20020;-74
2022/05/16 11:15:42;;;;;;;9.35;5.32;;;;;;;;;;5094885;28;20031;-74
2022/05/16 11:18:15;;;;;;;12.82;6.57;;;;;;;;;;5090216;28;20023;-72
2022/05/16 11:20:50;;;;;;;10.45;5.07;;;;;;;;;;5089217;28;20028;-72
2022/05/16 11:23:28;;;;;;;9.05;4.40;;;;;;;;;;5087085;28;20103;-73
2022/05/16 11:26:02;;;;;;;7.72;3.97;;;;;;;;;;5086432;28;20032;-71
2022/05/16 11:29:17;;;;;;;13.40;4.57;;;;;;;;;;5087735;28;20028;-72
2022/05/16 11:31:39;;;;;;;12.38;4.95;;;;;;;;;;5086992;28;20438;-73
2022/05/16 11:34:09;;;;;;;12.27;5.50;;;;;;;;;;5086316;28;20037;-76
2022/05/16 11:36:49;;;;;;;11.32;4.88;;;;;;;;;;5094751;28;20118;-73
2022/05/16 11:39:17;;;;;;;11.52;5.22;;;;;;;;;;5081201;28;20031;-73
2022/05/16 11:41:49;;;;;;;8.63;4.30;;;;;;;;;;5077363;28;20025;-72
2022/05/16 11:44:22;;;;;;;8.88;4.28;;;;;;;;;;5084587;28;20797;-76
2022/05/16 11:46:53;;;;;;;15.65;4.85;;;;;;;;;;5096593;28;20059;-75
2022/05/16 11:49:22;;;;;;;10.60;4.75;;;;;;;;;;5099307;28;20032;-71
2022/05/16 11:51:54;;;;;;;15.05;4.63;;;;;;;;;;5099254;28;20100;-72
2022/05/16 11:54:23;;;;;;;30.48;6.05;;;;;;;;;;5097600;28;20102;-72
2022/05/16 12:02:33;;;;;;;9.13;4.20;;;;;;;;;;5099210;28;20038;-72
2022/05/16 12:05:02;;;;;;;15.65;5.45;;;;;;;;;;5087845;27;20174;-73
2022/05/16 12:07:39;;;;;;;10.07;5.20;;;;;;;;;;5097953;28;20022;-72
2022/05/16 12:10:11;;;;;;;10.85;4.10;;;;;;;;;;5082021;28;20058;-72
2022/05/16 12:12:41;;;;;;;6.90;3.30;;;;;;;;;;5082294;28;20468;-72
2022/05/16 12:15:14;;;;;;;5.80;3.80;;;;;;;;;;5097271;28;20565;-72
2022/05/16 12:17:58;;;;;;;7.05;3.38;;;;;;;;;;5086073;28;20031;-73
2022/05/16 12:20:43;;;;;;;12.57;3.10;;;;;;;;;;5117547;27;20078;-72
2022/05/16 12:23:10;;;;;;;7.93;3.45;;;;;;;;;;5118858;27;20023;-72
2022/05/16 12:25:38;;;;;;;12.70;5.25;;;;;;;;;;5094867;27;20020;-76
2022/05/16 12:28:15;;;;;;;9.32;4.20;;;;;;;;;;5101835;28;20372;-72
2022/05/16 12:30:43;;;;;;;5.60;3.03;;;;;;;;;;5102755;28;20053;-72
2022/05/16 12:33:29;;;;;;;6.88;3.55;;;;;;;;;;5118905;27;20042;-73
2022/05/16 12:35:55;;;;;;;11.82;4.82;;;;;;;;;;5123236;27;20046;-72
2022/05/16 12:38:23;;;;;;;15.50;6.20;;;;;;;;;;5095737;27;20024;-73
2022/05/16 12:40:52;;;;;;;8.32;4.00;;;;;;;;;;5089736;28;20102;-72
2022/05/16 12:43:34;;;;;;;7.47;3.25;;;;;;;;;;5094106;28;20531;-71
2022/05/16 12:46:04;;;;;;;13.43;3.72;;;;;;;;;;5091734;28;20443;-72
2022/05/16 12:48:33;;;;;;;10.02;3.75;;;;;;;;;;5082979;28;20043;-76
2022/05/16 12:50:59;;;;;;;10.23;4.03;;;;;;;;;;5093585;28;20032;-72
2022/05/16 12:53:45;;;;;;;9.77;3.90;;;;;;;;;;5113415;27;20027;-72
2022/05/16 12:56:31;;;;;;;10.15;3.63;;;;;;;;;;5090560;28;20047;-72
2022/05/16 12:59:28;;;;;;;9.25;4.35;;;;;;;;;;5087124;28;20268;-73
2022/05/16 13:02:11;;;;;;;20.10;6.85;;;;;;;;;;5097720;28;20042;-74
2022/05/16 13:04:37;;;;;;;11.32;3.90;;;;;;;;;;5099664;28;20023;-72
2022/05/16 13:07:05;;;;;;;5.50;3.58;;;;;;;;;;5093281;28;20031;-72
2022/05/16 13:09:42;;;;;;;11.15;4.65;;;;;;;;;;5106860;27;20459;-74
2022/05/16 13:12:14;;;;;;;17.08;5.50;;;;;;;;;;5097333;27;20032;-77
2022/05/16 13:14:46;;;;;;;13.00;5.57;;;;;;;;;;5079641;28;20017;-73
2022/05/16 13:17:31;;;;;;;11.90;4.78;;;;;;;;;;5086868;28;20853;-76
2022/05/16 13:20:00;;;;;;;7.90;4.38;;;;;;;;;;5091571;28;20038;-72
2022/05/16 13:22:26;;;;;;;14.52;4.43;;;;;;;;;;5087695;27;20028;-73
2022/05/16 13:24:54;;;;;;;18.30;8.00;;;;;;;;;;5089079;27;20089;-73
2022/05/16 13:30:11;;;;;;;16.00;6.00;;;;;;;;;;5094941;27;20651;-72
2022/05/16 13:32:39;;;;;;;10.70;4.43;;;;;;;;;;5090747;28;20023;-72
2022/05/16 13:35:25;;;;;;;9.27;3.50;;;;;;;;;;5085204;27;20096;-72
2022/05/16 13:37:52;;;;;;;20.42;9.85;;;;;;;;;;5087413;27;20082;-71
2022/05/16 13:40:21;;;;;;;90.53;36.85;;;;;;;;;;5085467;27;20059;-74
2022/05/16 13:42:47;;;;;;;57.58;21.88;;;;;;;;;;5089726;27;20035;-73
2022/05/16 13:45:13;;;;;;;17.92;6.32;;;;;;;;;;5089525;28;20034;-73
2022/05/16 13:47:41;;;;;;;17.33;6.68;;;;;;;;;;5090738;28;20660;-77
2022/05/16 13:50:08;;;;;;;12.75;5.10;;;;;;;;;;5088906;28;20023;-73
2022/05/16 13:52:38;;;;;;;23.65;11.35;;;;;;;;;;5087076;28;20027;-74
2022/05/16 13:55:08;;;;;;;21.23;10.68;;;;;;;;;;5087693;28;20024;-74
2022/05/16 13:57:34;;;;;;;19.15;8.55;;;;;;;;;;5090974;28;20031;-72
2022/05/16 14:00:10;;;;;;;22.77;9.98;;;;;;;;;;5088641;27;20020;-73
2022/05/16 14:02:36;;;;;;;32.90;14.27;;;;;;;;;;5087289;28;20032;-72
2022/05/16 14:05:07;;;;;;;43.03;21.30;;;;;;;;;;5090609;28;20020;-74
2022/05/16 14:07:34;;;;;;;32.67;15.25;;;;;;;;;;5089713;28;20547;-74
2022/05/16 14:10:02;;;;;;;14.48;7.03;;;;;;;;;;5087780;28;20050;-73
2022/05/16 14:12:39;;;;;;;31.75;15.93;;;;;;;;;;5091475;28;20090;-72
2022/05/16 14:15:10;;;;;;;13.98;6.70;;;;;;;;;;5089447;28;20388;-74
2022/05/16 14:17:40;;;;;;;11.23;6.30;;;;;;;;;;5090660;28;20031;-74
2022/05/16 14:20:11;;;;;;;11.02;4.43;;;;;;;;;;5094798;28;20051;-73
2022/05/16 14:22:40;;;;;;;18.00;8.68;;;;;;;;;;5085226;28;20019;-73
2022/05/16 14:25:26;;;;;;;34.67;17.00;;;;;;;;;;5087383;28;20391;-73
2022/05/16 14:28:03;;;;;;;35.88;14.82;;;;;;;;;;5088321;28;20099;-73
2022/05/16 14:30:30;;;;;;;26.67;11.45;;;;;;;;;;5090296;28;20036;-73
2022/05/16 14:33:03;;;;;;;13.63;5.32;;;;;;;;;;5084583;28;20408;-73
2022/05/16 14:35:29;;;;;;;12.27;4.82;;;;;;;;;;5088910;28;20114;-72
2022/05/16 14:37:57;;;;;;;9.48;3.85;;;;;;;;;;5089937;27;20028;-73
2022/05/16 14:40:25;;;;;;;9.90;4.82;;;;;;;;;;5089110;27;20039;-75
2022/05/16 14:43:06;;;;;;;12.88;4.85;;;;;;;;;;5086192;28;20110;-72
2022/05/16 14:48:28;;;;;;;15.80;6.03;;;;;;;;;;5089372;28;20070;-75
2022/05/16 14:50:54;;;;;;;6.88;3.60;;;;;;;;;;5084604;28;20383;-74
2022/05/16 14:53:20;;;;;;;7.43;3.63;;;;;;;;;;5085475;28;20031;-71
2022/05/16 14:55:48;;;;;;;10.35;3.65;;;;;;;;;;5088276;28;20085;-77
2022/05/16 14:58:14;;;;;;;7.35;3.10;;;;;;;;;;5088958;28;20016;-73
2022/05/16 15:06:12;;;;;;;11.70;4.45;;;;;;;;;;5087983;28;20038;-72
2022/05/16 15:08:40;;;;;;;11.93;4.30;;;;;;;;;;5086818;28;20026;-73
2022/05/16 15:11:06;;;;;;;8.00;3.92;;;;;;;;;;5094670;28;20076;-74
2022/05/16 15:13:32;;;;;;;16.65;5.00;;;;;;;;;;5094184;28;20120;-73
2022/05/16 15:15:58;;;;;;;6.45;3.65;;;;;;;;;;5094680;28;20035;-72
2022/05/16 15:18:26;;;;;;;10.88;4.45;;;;;;;;;;5082316;28;20035;-72
2022/05/16 15:20:53;;;;;;;9.32;4.18;;;;;;;;;;5085158;28;20024;-76
2022/05/16 15:23:21;;;;;;;9.55;4.40;;;;;;;;;;5087284;28;20077;-72
2022/05/16 15:25:47;;;;;;;10.90;4.13;;;;;;;;;;5099120;28;20024;-72
2022/05/16 15:28:15;;;;;;;7.55;3.85;;;;;;;;;;5094459;28;20030;-72